Owego, Iowa
Current Conditions -  °F | °C
As of 11:52 AM on Saturday 22 Nov 2014 (Local Time) from KSUX Reporting Station
Haze Haze  
Wind Chill: 33°   Ceiling: 800
Heat Index: 41°   Visibility: 6mi
Dew Point: 36°   Wind: 14mph
Humidity: 82%   Direction: 180°S
Pressure: 29.75"   Gusts: NA
Location:  42.3446°N, 96.2663°W
Report Text: KSUX 221752Z 18012KT 6SM HZ OVC008 05/02 A2975 RMK AO2 SLP080 T00500022 10050 20033 58018
Loading
Personal Weather Stations






























Interactive Weather Map New forecast layout! Learn more

10-Day Weather Forecast

Advertisements
Track Severe Weather on mobile